createdAt,value
2023-02-13T00:00:12.699Z,72
2023-02-13T00:01:19.737Z,72
2023-02-13T00:02:26.933Z,72
2023-02-13T00:03:33.961Z,72
2023-02-13T00:04:40.572Z,72
2023-02-13T00:05:47.645Z,72
2023-02-13T00:06:54.734Z,72
2023-02-13T00:08:01.869Z,72
2023-02-13T00:09:08.953Z,72
2023-02-13T00:10:15.643Z,72
2023-02-13T00:11:22.633Z,72
2023-02-13T00:12:29.213Z,72
2023-02-13T00:12:29.711Z,72
2023-02-13T00:13:36.875Z,72
2023-02-13T00:14:43.967Z,72
2023-02-13T00:15:51.777Z,71
2023-02-13T00:16:57.648Z,71
2023-02-13T00:18:04.720Z,72
2023-02-13T00:19:11.900Z,71
2023-02-13T00:20:18.997Z,72
2023-02-13T00:21:25.633Z,71
2023-02-13T00:22:32.709Z,71
2023-02-13T00:23:39.768Z,71
2023-02-13T00:24:46.932Z,71
2023-02-13T00:25:53.973Z,71
2023-02-13T00:28:07.747Z,71
2023-02-13T00:29:14.753Z,71
2023-02-13T00:30:21.916Z,71
2023-02-13T00:31:29.477Z,71
2023-02-13T00:32:36.167Z,71
2023-02-13T00:33:42.693Z,71
2023-02-13T00:34:49.797Z,71
2023-02-13T00:35:56.925Z,71
2023-02-13T00:37:04.007Z,71
2023-02-13T00:38:10.666Z,71
2023-02-13T00:39:17.733Z,71
2023-02-13T00:40:24.781Z,71
2023-02-13T00:41:31.915Z,71
2023-02-13T00:42:39.029Z,71
2023-02-13T00:43:45.562Z,71
2023-02-13T00:44:52.706Z,71
2023-02-13T00:45:59.883Z,71
2023-02-13T00:47:06.985Z,71
2023-02-13T00:48:14.033Z,71
2023-02-13T00:49:20.590Z,71
2023-02-13T00:50:27.719Z,71
2023-02-13T00:51:34.848Z,71
2023-02-13T00:52:41.900Z,71
2023-02-13T00:53:49.037Z,71
2023-02-13T00:54:55.626Z,71
2023-02-13T00:56:02.667Z,71
2023-02-13T00:57:09.800Z,71
2023-02-13T00:58:17.078Z,71
2023-02-13T00:59:23.990Z,71
2023-02-13T01:01:37.751Z,71
2023-02-13T01:02:44.823Z,71
2023-02-13T01:03:52.518Z,71
2023-02-13T01:04:59.086Z,71
2023-02-13T01:06:05.619Z,71
2023-02-13T01:07:12.714Z,71
2023-02-13T01:08:19.867Z,71
2023-02-13T01:09:26.944Z,71
2023-02-13T01:10:34.012Z,71
2023-02-13T01:11:40.668Z,71
2023-02-13T01:12:47.758Z,71
2023-02-13T01:13:54.792Z,70
2023-02-13T01:15:01.920Z,70
2023-02-13T01:16:09.151Z,70
2023-02-13T01:17:15.624Z,70
2023-02-13T01:18:22.764Z,70
2023-02-13T01:19:30.383Z,70
2023-02-13T01:20:36.945Z,70
2023-02-13T01:21:43.536Z,70
2023-02-13T01:22:50.648Z,70
2023-02-13T01:23:57.752Z,70
2023-02-13T01:25:04.814Z,70
2023-02-13T01:26:11.964Z,70
2023-02-13T01:27:18.592Z,71
2023-02-13T01:28:25.770Z,70
2023-02-13T01:29:32.767Z,70
2023-02-13T01:30:39.928Z,71
2023-02-13T01:31:47.215Z,70
2023-02-13T01:32:53.566Z,70
2023-02-13T01:34:00.661Z,70
2023-02-13T01:35:07.314Z,70
2023-02-13T01:36:14.842Z,70
2023-02-13T01:37:21.993Z,70
2023-02-13T01:38:28.664Z,70
2023-02-13T01:39:35.619Z,70
2023-02-13T01:40:42.768Z,70
2023-02-13T01:41:49.892Z,70
2023-02-13T01:42:56.997Z,70
2023-02-13T01:44:04.066Z,70
2023-02-13T01:45:10.676Z,70
2023-02-13T01:46:17.837Z,70
2023-02-13T01:47:24.892Z,70
2023-02-13T01:48:32.483Z,70
2023-02-13T01:49:38.586Z,70
2023-02-13T01:50:45.634Z,70
2023-02-13T01:51:52.744Z,70
2023-02-13T01:52:59.906Z,70
2023-02-13T01:54:07.003Z,70
2023-02-13T01:56:20.715Z,70
2023-02-13T01:57:27.802Z,70
2023-02-13T01:58:34.893Z,70
2023-02-13T01:59:42.001Z,70
2023-02-13T02:00:48.600Z,70
2023-02-13T02:01:55.850Z,70
2023-02-13T02:03:02.804Z,70
2023-02-13T02:05:17.072Z,70
2023-02-13T02:06:23.566Z,70
2023-02-13T02:07:30.766Z,70
2023-02-13T02:08:37.961Z,70
2023-02-13T02:09:44.906Z,70
2023-02-13T02:10:52.022Z,70
2023-02-13T02:11:58.629Z,70
2023-02-13T02:13:05.702Z,70
2023-02-13T02:14:12.799Z,70
2023-02-13T02:15:19.949Z,70
2023-02-13T02:16:27.127Z,70
2023-02-13T02:17:33.898Z,70
2023-02-13T02:18:40.712Z,70
2023-02-13T02:19:47.955Z,70
2023-02-13T02:20:54.971Z,70
2023-02-13T02:22:02.072Z,70
2023-02-13T02:23:09.221Z,70
2023-02-13T02:24:15.713Z,70
2023-02-13T02:25:22.831Z,70
2023-02-13T02:26:29.953Z,70
2023-02-13T02:27:37.068Z,69
2023-02-13T02:28:43.602Z,69
2023-02-13T02:29:50.775Z,69
2023-02-13T02:30:58.254Z,69
2023-02-13T02:32:05.480Z,69
2023-02-13T02:33:11.600Z,69
2023-02-13T02:34:18.890Z,69
2023-02-13T02:35:25.701Z,69
2023-02-13T02:36:32.836Z,69
2023-02-13T02:37:40.051Z,69
2023-02-13T02:38:46.576Z,69
2023-02-13T02:39:53.642Z,69
2023-02-13T02:41:00.740Z,68
2023-02-13T02:42:07.871Z,68
2023-02-13T02:43:15.034Z,68
2023-02-13T02:44:21.585Z,68
2023-02-13T02:45:28.672Z,68
2023-02-13T02:46:35.978Z,68
2023-02-13T02:47:42.825Z,68
2023-02-13T02:48:49.931Z,68
2023-02-13T02:49:56.550Z,68
2023-02-13T02:51:03.661Z,68
2023-02-13T02:52:10.787Z,68
2023-02-13T02:53:17.928Z,68
2023-02-13T02:54:24.977Z,68
2023-02-13T02:55:32.108Z,67
2023-02-13T02:56:38.738Z,67
2023-02-13T02:57:45.742Z,67
2023-02-13T02:58:52.866Z,67
2023-02-13T03:00:00.008Z,67
2023-02-13T03:01:06.736Z,67
2023-02-13T03:02:13.678Z,67
2023-02-13T03:03:20.864Z,67
2023-02-13T03:04:27.969Z,67
2023-02-13T03:05:34.953Z,67
2023-02-13T03:06:41.558Z,67
2023-02-13T03:08:55.818Z,67
2023-02-13T03:10:02.879Z,67
2023-02-13T03:11:10.036Z,67
2023-02-13T03:12:16.615Z,67
2023-02-13T03:13:23.721Z,67
2023-02-13T03:14:30.807Z,67
2023-02-13T03:15:37.861Z,67
2023-02-13T03:16:45.098Z,67
2023-02-13T03:17:51.674Z,67
2023-02-13T03:18:58.684Z,67
2023-02-13T03:20:05.761Z,67
2023-02-13T03:21:12.928Z,67
2023-02-13T03:22:20.004Z,66
2023-02-13T03:24:33.684Z,66
2023-02-13T03:25:40.822Z,66
2023-02-13T03:26:48.460Z,66
2023-02-13T03:27:55.118Z,66
2023-02-13T03:29:01.606Z,66
2023-02-13T03:30:08.699Z,66
2023-02-13T03:31:15.864Z,66
2023-02-13T03:32:22.926Z,66
2023-02-13T03:33:30.038Z,66
2023-02-13T03:34:36.626Z,66
2023-02-13T03:35:43.670Z,66
2023-02-13T03:36:50.812Z,66
2023-02-13T03:37:58.036Z,66
2023-02-13T03:39:05.032Z,66
2023-02-13T03:40:11.675Z,66
2023-02-13T03:41:18.720Z,66
2023-02-13T03:42:25.827Z,66
2023-02-13T03:43:32.942Z,66
2023-02-13T03:44:39.542Z,66
2023-02-13T03:45:47.048Z,66
2023-02-13T03:46:53.751Z,66
2023-02-13T03:48:00.889Z,66
2023-02-13T03:49:07.943Z,66
2023-02-13T03:50:14.506Z,66
2023-02-13T03:51:21.645Z,66
2023-02-13T03:52:28.760Z,66
2023-02-13T03:53:35.859Z,66
2023-02-13T03:54:42.956Z,66
2023-02-13T03:55:49.546Z,66
2023-02-13T03:56:56.653Z,66
2023-02-13T03:58:03.802Z,66
2023-02-13T03:59:10.808Z,66
2023-02-13T04:00:18.476Z,66
2023-02-13T04:01:24.578Z,66
2023-02-13T04:02:31.750Z,66
2023-02-13T04:03:38.788Z,66
2023-02-13T04:04:45.875Z,66
2023-02-13T04:05:52.945Z,66
2023-02-13T04:07:00.123Z,66
2023-02-13T04:08:06.730Z,66
2023-02-13T04:09:13.756Z,66
2023-02-13T04:10:20.876Z,66
2023-02-13T04:12:34.517Z,66
2023-02-13T04:13:41.671Z,66
2023-02-13T04:14:48.782Z,66
2023-02-13T04:15:55.905Z,66
2023-02-13T04:17:02.985Z,66
2023-02-13T04:18:10.659Z,66
2023-02-13T04:19:16.693Z,66
2023-02-13T04:20:23.723Z,66
2023-02-13T04:21:31.019Z,66
2023-02-13T04:22:37.988Z,66
2023-02-13T04:23:44.602Z,66
2023-02-13T04:24:51.651Z,66
2023-02-13T04:25:58.794Z,66
2023-02-13T04:27:05.869Z,66
2023-02-13T04:28:12.997Z,66
2023-02-13T04:29:19.580Z,67
2023-02-13T04:30:27.253Z,67
2023-02-13T04:31:33.976Z,67
2023-02-13T04:32:41.354Z,67
2023-02-13T04:33:48.063Z,67
2023-02-13T04:34:54.566Z,67
2023-02-13T04:36:01.686Z,67
2023-02-13T04:37:08.784Z,67
2023-02-13T04:38:15.937Z,67
2023-02-13T04:39:22.989Z,67
2023-02-13T04:40:29.628Z,67
2023-02-13T04:41:36.723Z,67
2023-02-13T04:42:43.814Z,67
2023-02-13T04:43:50.903Z,67
2023-02-13T04:44:58.011Z,67
2023-02-13T04:46:04.688Z,67
2023-02-13T04:47:11.826Z,67
2023-02-13T04:48:18.795Z,67
2023-02-13T04:49:25.875Z,67
2023-02-13T04:50:33.008Z,67
2023-02-13T04:52:46.775Z,67
2023-02-13T04:53:53.811Z,67
2023-02-13T04:55:00.924Z,67
2023-02-13T04:56:08.066Z,67
2023-02-13T04:57:14.614Z,67
2023-02-13T04:58:21.758Z,67
2023-02-13T04:59:28.829Z,68
2023-02-13T05:00:35.939Z,68
2023-02-13T05:01:42.539Z,68
2023-02-13T05:02:49.686Z,68
2023-02-13T05:03:56.746Z,68
2023-02-13T05:05:03.838Z,68
2023-02-13T05:06:10.967Z,68
2023-02-13T05:07:17.579Z,68
2023-02-13T05:08:24.628Z,68
2023-02-13T05:09:31.768Z,68
2023-02-13T05:10:38.844Z,68
2023-02-13T05:11:45.937Z,68
2023-02-13T05:12:52.546Z,68
2023-02-13T05:13:59.675Z,68
2023-02-13T05:16:13.907Z,68
2023-02-13T05:17:20.966Z,68
2023-02-13T05:18:28.140Z,68
2023-02-13T05:19:34.646Z,68
2023-02-13T05:20:41.771Z,68
2023-02-13T05:21:48.859Z,68
2023-02-13T05:22:55.968Z,68
2023-02-13T05:24:02.547Z,68
2023-02-13T05:25:09.663Z,68
2023-02-13T05:26:16.785Z,68
2023-02-13T05:27:23.850Z,68
2023-02-13T05:28:31.103Z,68
2023-02-13T05:29:37.600Z,68
2023-02-13T05:30:44.672Z,68
2023-02-13T05:31:51.903Z,68
2023-02-13T05:32:58.870Z,68
2023-02-13T05:34:06.523Z,68
2023-02-13T05:35:12.561Z,68
2023-02-13T05:36:19.701Z,68
2023-02-13T05:37:26.768Z,68
2023-02-13T05:38:33.930Z,68
2023-02-13T05:39:40.978Z,68
2023-02-13T05:40:47.588Z,68
2023-02-13T05:41:54.658Z,68
2023-02-13T05:43:01.809Z,68
2023-02-13T05:44:08.914Z,69
2023-02-13T05:45:15.972Z,69
2023-02-13T05:46:22.677Z,69
2023-02-13T05:47:29.696Z,69
2023-02-13T05:48:36.832Z,69
2023-02-13T05:49:43.900Z,69
2023-02-13T05:50:51.028Z,69
2023-02-13T05:51:57.593Z,69
2023-02-13T05:53:04.700Z,69
2023-02-13T05:54:11.830Z,69
2023-02-13T05:55:18.943Z,69
2023-02-13T05:56:26.034Z,69
2023-02-13T05:57:34.718Z,69
2023-02-13T05:58:39.758Z,69
2023-02-13T05:59:46.789Z,69
2023-02-13T06:00:53.908Z,69
2023-02-13T06:02:01.005Z,69
2023-02-13T06:03:07.623Z,69
2023-02-13T06:04:14.766Z,69
2023-02-13T06:05:22.108Z,69
2023-02-13T06:06:28.960Z,69
2023-02-13T06:07:36.003Z,69
2023-02-13T06:08:42.655Z,69
2023-02-13T06:09:49.675Z,69
2023-02-13T06:10:56.809Z,69
2023-02-13T06:12:03.934Z,69
2023-02-13T06:13:11.016Z,69
2023-02-13T06:14:17.646Z,69
2023-02-13T06:15:24.699Z,69
2023-02-13T06:16:31.842Z,69
2023-02-13T06:17:38.950Z,69
2023-02-13T06:20:59.947Z,69
2023-02-13T06:22:06.841Z,69
2023-02-13T06:23:14.043Z,69
2023-02-13T06:24:20.535Z,69
2023-02-13T06:25:27.632Z,69
2023-02-13T06:26:34.731Z,69
2023-02-13T06:27:41.844Z,69
2023-02-13T06:28:48.936Z,69
2023-02-13T06:29:56.053Z,69
2023-02-13T06:31:02.881Z,69
2023-02-13T06:32:09.868Z,69
2023-02-13T06:33:16.937Z,69
2023-02-13T06:34:23.977Z,69
2023-02-13T06:35:30.535Z,69
2023-02-13T06:36:37.628Z,69
2023-02-13T06:37:45.254Z,69
2023-02-13T06:38:51.914Z,69
2023-02-13T06:39:58.936Z,69
2023-02-13T06:41:05.558Z,69
2023-02-13T06:42:12.666Z,69
2023-02-13T06:43:19.814Z,70
2023-02-13T06:44:26.846Z,70
2023-02-13T06:45:33.945Z,70
2023-02-13T06:46:41.181Z,70
2023-02-13T06:47:47.676Z,70
2023-02-13T06:48:54.757Z,69
2023-02-13T06:50:01.897Z,70
2023-02-13T06:51:08.985Z,70
2023-02-13T06:52:15.534Z,69
2023-02-13T06:53:22.733Z,70
2023-02-13T06:54:45.940Z,70
2023-02-13T06:55:36.900Z,70
2023-02-13T06:56:43.964Z,70
2023-02-13T06:57:50.562Z,70
2023-02-13T06:58:57.807Z,70
2023-02-13T07:00:04.786Z,70
2023-02-13T07:01:11.952Z,70
2023-02-13T07:02:19.039Z,70
2023-02-13T07:03:25.658Z,70
2023-02-13T07:04:32.663Z,70
2023-02-13T07:05:39.784Z,70
2023-02-13T07:06:46.984Z,70
2023-02-13T07:07:53.977Z,70
2023-02-13T07:09:00.545Z,70
2023-02-13T07:10:07.663Z,70
2023-02-13T07:11:14.772Z,70
2023-02-13T07:12:21.964Z,70
2023-02-13T07:13:29.124Z,70
2023-02-13T07:14:35.552Z,70
2023-02-13T07:15:42.746Z,70
2023-02-13T07:16:49.819Z,70
2023-02-13T07:17:56.978Z,70
2023-02-13T07:19:04.061Z,70
2023-02-13T07:20:10.609Z,70
2023-02-13T07:21:17.748Z,70
2023-02-13T07:23:31.964Z,70
2023-02-13T07:24:39.032Z,70
2023-02-13T07:25:47.128Z,70
2023-02-13T07:26:52.672Z,70
2023-02-13T07:27:59.884Z,70
2023-02-13T07:29:11.539Z,70
2023-02-13T07:30:14.016Z,70
2023-02-13T07:31:20.644Z,70
2023-02-13T07:32:27.722Z,70
2023-02-13T07:33:34.836Z,70
2023-02-13T07:34:55.877Z,70
2023-02-13T07:35:49.023Z,70
2023-02-13T07:36:55.618Z,71
2023-02-13T07:38:02.779Z,71
2023-02-13T07:39:09.879Z,71
2023-02-13T07:40:16.935Z,71
2023-02-13T07:41:24.589Z,71
2023-02-13T07:42:30.640Z,71
2023-02-13T07:43:37.763Z,71
2023-02-13T07:44:44.840Z,71
2023-02-13T07:45:51.960Z,71
2023-02-13T07:46:59.048Z,71
2023-02-13T07:49:12.767Z,71
2023-02-13T07:50:19.903Z,71
2023-02-13T07:51:26.963Z,71
2023-02-13T07:52:34.068Z,71
2023-02-13T07:53:40.656Z,71
2023-02-13T07:54:48.101Z,71
2023-02-13T07:55:55.027Z,71
2023-02-13T07:57:01.997Z,71
2023-02-13T07:58:09.135Z,71
2023-02-13T07:59:15.660Z,71
2023-02-13T08:00:22.761Z,71
2023-02-13T08:01:29.977Z,71
2023-02-13T08:02:37.008Z,71
2023-02-13T08:03:44.115Z,71
2023-02-13T08:04:50.690Z,71
2023-02-13T08:05:58.139Z,71
2023-02-13T08:07:04.875Z,71
2023-02-13T08:08:12.027Z,71
2023-02-13T08:09:19.169Z,71
2023-02-13T08:10:25.642Z,71
2023-02-13T08:11:32.763Z,71
2023-02-13T08:12:39.844Z,71
2023-02-13T08:13:47.048Z,71
2023-02-13T08:14:53.559Z,71
2023-02-13T08:16:00.762Z,71
2023-02-13T08:17:07.781Z,71
2023-02-13T08:18:14.937Z,71
2023-02-13T08:19:22.027Z,71
2023-02-13T08:20:28.590Z,71
2023-02-13T08:21:35.644Z,71
2023-02-13T08:22:42.779Z,71
2023-02-13T08:23:49.857Z,71
2023-02-13T08:24:57.032Z,71
2023-02-13T08:27:10.722Z,71
2023-02-13T08:28:17.970Z,71
2023-02-13T08:29:24.893Z,71
2023-02-13T08:30:32.027Z,71
2023-02-13T08:31:38.651Z,71
2023-02-13T08:32:53.445Z,71
2023-02-13T08:33:52.808Z,71
2023-02-13T08:34:59.937Z,71
2023-02-13T08:36:07.153Z,71
2023-02-13T08:37:13.576Z,71
2023-02-13T08:38:20.779Z,71
2023-02-13T08:39:27.835Z,71
2023-02-13T08:40:34.917Z,71
2023-02-13T08:41:42.036Z,71
2023-02-13T08:42:48.623Z,71
2023-02-13T08:43:55.707Z,71
2023-02-13T08:45:03.327Z,71
2023-02-13T08:46:10.120Z,71
2023-02-13T08:47:17.049Z,71
2023-02-13T08:48:23.637Z,71
2023-02-13T08:49:30.681Z,71
2023-02-13T08:50:37.816Z,71
2023-02-13T08:51:44.889Z,71
2023-02-13T08:52:52.076Z,71
2023-02-13T08:53:58.628Z,71
2023-02-13T08:55:05.738Z,71
2023-02-13T08:56:12.801Z,71
2023-02-13T08:57:19.937Z,71
2023-02-13T08:58:27.128Z,71
2023-02-13T08:59:33.623Z,71
2023-02-13T09:00:40.766Z,71
2023-02-13T09:01:47.845Z,71
2023-02-13T09:02:55.001Z,71
2023-02-13T09:04:02.078Z,71
2023-02-13T09:05:08.676Z,71
2023-02-13T09:06:15.732Z,71
2023-02-13T09:07:22.816Z,72
2023-02-13T09:08:30.044Z,71
2023-02-13T09:09:37.101Z,72
2023-02-13T09:10:43.702Z,72
2023-02-13T09:11:50.822Z,72
2023-02-13T09:12:57.855Z,72
2023-02-13T09:14:04.944Z,72
2023-02-13T09:15:12.095Z,72
2023-02-13T09:17:25.754Z,72
2023-02-13T09:18:32.904Z,72
2023-02-13T09:19:39.972Z,72
2023-02-13T09:20:46.556Z,72
2023-02-13T09:21:53.625Z,72
2023-02-13T09:23:00.767Z,72
2023-02-13T09:24:07.870Z,72
2023-02-13T09:25:14.979Z,72
2023-02-13T09:26:22.116Z,72
2023-02-13T09:27:28.656Z,72
2023-02-13T09:28:35.920Z,72
2023-02-13T09:30:50.103Z,72
2023-02-13T09:31:57.302Z,72
2023-02-13T09:33:03.684Z,72
2023-02-13T09:34:10.824Z,72
2023-02-13T09:35:17.915Z,72
2023-02-13T09:36:25.021Z,72
2023-02-13T09:37:31.558Z,72
2023-02-13T09:38:38.728Z,72
2023-02-13T09:39:45.778Z,72
2023-02-13T09:40:52.859Z,72
2023-02-13T09:42:00.013Z,72
2023-02-13T09:43:07.148Z,72
2023-02-13T09:44:13.651Z,72
2023-02-13T09:45:20.871Z,72
2023-02-13T09:46:28.015Z,72
2023-02-13T09:47:34.992Z,72
2023-02-13T09:48:42.180Z,72
2023-02-13T09:49:48.753Z,72
2023-02-13T09:50:55.814Z,72
2023-02-13T09:52:02.945Z,72
2023-02-13T09:53:10.023Z,72
2023-02-13T09:54:16.606Z,73
2023-02-13T09:55:23.724Z,72
2023-02-13T09:56:30.844Z,72
2023-02-13T09:57:37.932Z,73
2023-02-13T09:58:45.113Z,73
2023-02-13T09:59:51.653Z,73
2023-02-13T10:00:58.744Z,73
2023-02-13T10:02:05.794Z,73
2023-02-13T10:03:12.929Z,73
2023-02-13T10:04:20.060Z,73
2023-02-13T10:05:26.703Z,73
2023-02-13T10:06:33.720Z,73
2023-02-13T10:07:40.903Z,73
2023-02-13T10:08:48.055Z,73
2023-02-13T10:09:55.037Z,73
2023-02-13T10:11:01.648Z,73
2023-02-13T10:12:08.866Z,73
2023-02-13T10:13:15.862Z,73
2023-02-13T10:14:22.915Z,73
2023-02-13T10:15:30.106Z,73
2023-02-13T10:16:36.692Z,73
2023-02-13T10:17:43.743Z,73
2023-02-13T10:18:50.859Z,73
2023-02-13T10:19:57.981Z,73
2023-02-13T10:21:05.042Z,73
2023-02-13T10:22:11.691Z,73
2023-02-13T10:23:18.817Z,73
2023-02-13T10:24:26.307Z,73
2023-02-13T10:25:32.991Z,73
2023-02-13T10:26:40.080Z,73
2023-02-13T10:27:46.693Z,73
2023-02-13T10:28:53.734Z,73
2023-02-13T10:30:00.852Z,73
2023-02-13T10:31:08.089Z,73
2023-02-13T10:32:15.209Z,73
2023-02-13T10:34:28.815Z,73
2023-02-13T10:35:35.899Z,73
2023-02-13T10:36:43.040Z,73
2023-02-13T10:37:50.188Z,73
2023-02-13T10:38:56.725Z,73
2023-02-13T10:40:03.822Z,73
2023-02-13T10:41:10.880Z,73
2023-02-13T10:42:17.969Z,73
2023-02-13T10:43:25.194Z,73
2023-02-13T10:44:31.725Z,73
2023-02-13T10:45:38.785Z,73
2023-02-13T10:46:46.009Z,73
2023-02-13T10:47:53.003Z,73
2023-02-13T10:49:00.173Z,73
2023-02-13T10:50:06.727Z,73
2023-02-13T10:51:13.764Z,73
2023-02-13T10:52:21.417Z,73
2023-02-13T10:53:28.102Z,73
2023-02-13T10:54:35.122Z,73
2023-02-13T10:55:41.720Z,73
2023-02-13T10:56:48.860Z,73
2023-02-13T10:57:55.922Z,73
2023-02-13T10:59:03.028Z,73
2023-02-13T11:00:10.134Z,73
2023-02-13T11:01:16.786Z,73
2023-02-13T11:02:23.768Z,73
2023-02-13T11:03:31.026Z,73
2023-02-13T11:04:38.098Z,73
2023-02-13T11:05:47.170Z,72
2023-02-13T11:06:51.697Z,73
2023-02-13T11:07:58.860Z,73
2023-02-13T11:09:05.872Z,73
2023-02-13T11:10:13.007Z,73
2023-02-13T11:11:19.616Z,73
2023-02-13T11:12:26.780Z,73
2023-02-13T11:13:33.319Z,73
2023-02-13T11:13:33.927Z,73
2023-02-13T11:14:40.944Z,72
2023-02-13T11:15:48.104Z,72
2023-02-13T11:16:54.617Z,72
2023-02-13T11:18:01.738Z,72
2023-02-13T11:19:08.835Z,72
2023-02-13T11:20:15.932Z,72
2023-02-13T11:22:29.641Z,72
2023-02-13T11:23:36.765Z,72
2023-02-13T11:24:43.964Z,72
2023-02-13T11:25:50.933Z,72
2023-02-13T11:26:58.041Z,72
2023-02-13T11:28:04.721Z,72
2023-02-13T11:29:11.768Z,72
2023-02-13T11:30:18.821Z,72
2023-02-13T11:31:26.102Z,72
2023-02-13T11:32:33.034Z,72
2023-02-13T11:33:39.712Z,72
2023-02-13T11:34:46.735Z,72
2023-02-13T11:35:53.827Z,72
2023-02-13T11:38:08.045Z,71
2023-02-13T11:39:14.654Z,71
2023-02-13T11:40:21.751Z,71
2023-02-13T11:41:28.907Z,71
2023-02-13T11:42:35.943Z,70
2023-02-13T11:43:43.107Z,70
2023-02-13T11:44:49.638Z,70
2023-02-13T11:45:57.274Z,70
2023-02-13T11:47:03.910Z,70
2023-02-13T11:48:11.006Z,70
2023-02-13T11:49:18.079Z,70
2023-02-13T11:50:24.624Z,70
2023-02-13T11:51:31.755Z,70
2023-02-13T11:52:38.885Z,70
2023-02-13T11:53:46.033Z,69
2023-02-13T11:54:53.102Z,69
2023-02-13T11:56:00.424Z,69
2023-02-13T11:57:06.838Z,69
2023-02-13T11:58:13.948Z,69
2023-02-13T11:59:20.999Z,69
2023-02-13T12:00:28.087Z,69
2023-02-13T12:01:34.631Z,69
2023-02-13T12:02:41.988Z,69
2023-02-13T12:03:49.054Z,69
2023-02-13T12:04:56.044Z,69
2023-02-13T12:06:03.098Z,69
2023-02-13T12:07:09.712Z,69
2023-02-13T12:08:16.781Z,69
2023-02-13T12:09:23.904Z,69
2023-02-13T12:10:30.988Z,69
2023-02-13T12:11:38.179Z,69
2023-02-13T12:12:44.727Z,69
2023-02-13T12:13:51.918Z,69
2023-02-13T12:14:58.959Z,69
2023-02-13T12:16:06.135Z,69
2023-02-13T12:17:25.506Z,69
2023-02-13T12:18:19.701Z,70
2023-02-13T12:19:26.842Z,70
2023-02-13T12:20:33.926Z,70
2023-02-13T12:21:41.045Z,70
2023-02-13T12:22:48.219Z,70
2023-02-13T12:23:54.749Z,70
2023-02-13T12:25:01.823Z,70
2023-02-13T12:26:08.907Z,70
2023-02-13T12:27:16.021Z,70
2023-02-13T12:28:23.168Z,70
2023-02-13T12:29:29.760Z,70
2023-02-13T12:30:36.843Z,70
2023-02-13T12:31:43.968Z,70
2023-02-13T12:32:51.041Z,70
2023-02-13T12:33:57.668Z,69
2023-02-13T12:35:04.725Z,69
2023-02-13T12:36:11.814Z,69
2023-02-13T12:37:18.931Z,69
2023-02-13T12:38:26.049Z,69
2023-02-13T12:39:32.672Z,69
2023-02-13T12:41:46.837Z,69
2023-02-13T12:42:53.919Z,69
2023-02-13T12:44:01.098Z,69
2023-02-13T12:45:07.626Z,68
2023-02-13T12:46:14.897Z,68
2023-02-13T12:47:21.881Z,68
2023-02-13T12:48:29.058Z,68
2023-02-13T12:50:42.618Z,68
2023-02-13T12:51:49.737Z,68
2023-02-13T12:52:56.886Z,68
2023-02-13T12:54:03.409Z,68
2023-02-13T12:54:03.927Z,68
2023-02-13T12:55:11.071Z,67
2023-02-13T12:56:17.680Z,67
2023-02-13T12:57:24.751Z,67
2023-02-13T12:58:31.884Z,67
2023-02-13T12:59:39.536Z,67
2023-02-13T13:00:46.151Z,67
2023-02-13T13:01:52.647Z,67
2023-02-13T13:02:59.754Z,67
2023-02-13T13:04:06.861Z,67
2023-02-13T13:05:13.991Z,67
2023-02-13T13:06:21.100Z,67
2023-02-13T13:07:27.640Z,67
2023-02-13T13:08:34.814Z,67
2023-02-13T13:09:41.908Z,67
2023-02-13T13:10:50.888Z,67
2023-02-13T13:11:56.100Z,67
2023-02-13T13:13:02.661Z,67
2023-02-13T13:14:09.822Z,67
2023-02-13T13:15:16.892Z,67
2023-02-13T13:16:24.018Z,67
2023-02-13T13:17:31.101Z,67
2023-02-13T13:18:37.749Z,67
2023-02-13T13:19:44.776Z,67
2023-02-13T13:20:51.915Z,67
2023-02-13T13:21:59.024Z,67
2023-02-13T13:23:06.114Z,67
2023-02-13T13:24:12.682Z,67
2023-02-13T13:25:19.971Z,67
2023-02-13T13:26:26.931Z,67
2023-02-13T13:27:34.003Z,67
2023-02-13T13:28:41.169Z,66
2023-02-13T13:29:47.796Z,66
2023-02-13T13:30:54.925Z,66
2023-02-13T13:32:01.968Z,66
2023-02-13T13:33:09.049Z,66
2023-02-13T13:34:16.156Z,66
2023-02-13T13:35:22.698Z,66
2023-02-13T13:36:29.801Z,66
2023-02-13T13:37:36.946Z,66
2023-02-13T13:38:44.077Z,66
2023-02-13T13:39:51.081Z,66
2023-02-13T13:40:58.084Z,66
2023-02-13T13:42:04.787Z,66
2023-02-13T13:43:11.919Z,66
2023-02-13T13:45:25.608Z,66
2023-02-13T13:46:32.749Z,66
2023-02-13T13:47:39.830Z,66
2023-02-13T13:48:47.005Z,67
2023-02-13T13:49:54.146Z,67
2023-02-13T13:51:00.862Z,67
2023-02-13T13:52:07.727Z,67
2023-02-13T13:53:14.793Z,67
2023-02-13T13:54:21.969Z,67
2023-02-13T13:55:29.081Z,67
2023-02-13T13:56:35.598Z,67
2023-02-13T13:57:42.735Z,67
2023-02-13T13:58:49.921Z,67
2023-02-13T13:59:56.991Z,67
2023-02-13T14:01:04.115Z,67
2023-02-13T14:02:10.712Z,67
2023-02-13T14:03:18.302Z,67
2023-02-13T14:04:24.836Z,67
2023-02-13T14:05:31.989Z,67
2023-02-13T14:06:39.108Z,67
2023-02-13T14:07:45.643Z,67
2023-02-13T14:08:52.798Z,67
2023-02-13T14:09:59.868Z,67
2023-02-13T14:11:06.987Z,67
2023-02-13T14:12:14.049Z,67
2023-02-13T14:13:20.674Z,67
2023-02-13T14:14:27.886Z,67
2023-02-13T14:15:34.908Z,67
2023-02-13T14:16:41.497Z,67
2023-02-13T14:18:55.642Z,67
2023-02-13T14:20:03.765Z,67
2023-02-13T14:21:09.894Z,67
2023-02-13T14:22:16.961Z,67
2023-02-13T14:23:24.050Z,67
2023-02-13T14:24:30.778Z,67
2023-02-13T14:25:37.759Z,67
2023-02-13T14:26:45.552Z,67
2023-02-13T14:27:51.945Z,67
2023-02-13T14:28:59.046Z,67
2023-02-13T14:30:05.750Z,67
2023-02-13T14:31:12.898Z,67
2023-02-13T14:32:19.900Z,67
2023-02-13T14:33:27.006Z,68
2023-02-13T14:34:34.101Z,67
2023-02-13T14:35:40.664Z,67
2023-02-13T14:36:47.814Z,68
2023-02-13T14:37:54.853Z,68
2023-02-13T14:39:02.142Z,68
2023-02-13T14:40:09.112Z,68
2023-02-13T14:41:15.673Z,68
2023-02-13T14:42:22.747Z,68
2023-02-13T14:43:29.903Z,68
2023-02-13T14:44:37.051Z,68
2023-02-13T14:45:43.576Z,68
2023-02-13T14:46:50.690Z,68
2023-02-13T14:49:04.946Z,68
2023-02-13T14:50:12.044Z,68
2023-02-13T14:51:18.605Z,68
2023-02-13T14:52:25.691Z,68
2023-02-13T14:53:32.795Z,68
2023-02-13T14:54:40.006Z,68
2023-02-13T14:55:47.305Z,68
2023-02-13T14:56:53.578Z,68
2023-02-13T14:58:00.699Z,68
2023-02-13T14:59:07.831Z,68
2023-02-13T15:00:14.921Z,68
2023-02-13T15:01:22.060Z,68
2023-02-13T15:02:28.625Z,68
2023-02-13T15:03:35.727Z,68
2023-02-13T15:04:42.855Z,68
2023-02-13T15:05:49.950Z,68
2023-02-13T15:06:57.557Z,68
2023-02-13T15:08:03.614Z,68
2023-02-13T15:09:10.790Z,68
2023-02-13T15:10:17.871Z,68
2023-02-13T15:11:24.943Z,68
2023-02-13T15:12:32.062Z,68
2023-02-13T15:13:38.707Z,68
2023-02-13T15:14:45.723Z,68
2023-02-13T15:15:53.001Z,68
2023-02-13T15:16:59.944Z,69
2023-02-13T15:18:07.085Z,69
2023-02-13T15:19:13.685Z,69
2023-02-13T15:20:20.762Z,69
2023-02-13T15:21:27.866Z,69
2023-02-13T15:22:34.909Z,69
2023-02-13T15:23:42.052Z,69
2023-02-13T15:24:48.709Z,69
2023-02-13T15:25:55.741Z,69
2023-02-13T15:27:02.873Z,68
2023-02-13T15:28:09.988Z,68
2023-02-13T15:29:25.933Z,68
2023-02-13T15:30:23.708Z,68
2023-02-13T15:31:30.801Z,68
2023-02-13T15:32:37.876Z,68
2023-02-13T15:33:44.966Z,68
2023-02-13T15:34:52.074Z,68
2023-02-13T15:35:58.675Z,68
2023-02-13T15:37:05.721Z,68
2023-02-13T15:38:12.829Z,68
2023-02-13T15:39:20.034Z,68
2023-02-13T15:40:27.097Z,68
2023-02-13T15:41:33.658Z,68
2023-02-13T15:42:40.762Z,68
2023-02-13T15:43:47.957Z,68
2023-02-13T15:44:54.940Z,68
2023-02-13T15:47:08.698Z,69
2023-02-13T15:48:15.758Z,69
2023-02-13T15:49:22.871Z,69
2023-02-13T15:50:30.010Z,69
2023-02-13T15:51:37.113Z,69
2023-02-13T15:52:43.739Z,69
2023-02-13T15:53:50.784Z,69
2023-02-13T15:54:57.925Z,69
2023-02-13T15:56:05.018Z,69
2023-02-13T15:57:12.234Z,69
2023-02-13T15:58:18.734Z,69
2023-02-13T15:59:25.772Z,69
2023-02-13T16:00:32.894Z,69
2023-02-13T16:01:40.080Z,69
2023-02-13T16:02:46.650Z,69
2023-02-13T16:03:53.746Z,69
2023-02-13T16:05:00.813Z,69
2023-02-13T16:06:07.917Z,69
2023-02-13T16:07:14.988Z,69
2023-02-13T16:08:21.589Z,69
2023-02-13T16:09:28.719Z,69
2023-02-13T16:10:36.344Z,69
2023-02-13T16:11:42.868Z,69
2023-02-13T16:12:50.056Z,69
2023-02-13T16:13:57.150Z,69
2023-02-13T16:15:03.659Z,69
2023-02-13T16:16:10.970Z,69
2023-02-13T16:17:17.876Z,69
2023-02-13T16:18:24.984Z,69
2023-02-13T16:19:31.622Z,69